Time;durP1;ratioP1;P1;durP2;ratioP2;P2;SDS_P1;SDS_P2;PMS_P1;PMS_P2;Temp;Humidity;BMP_temperature;BMP_pressure;BME280_temperature;BME280_humidity;BME280_pressure;Samples;Min_cycle;Max_cycle;Signal;HPM_P1;HPM_P2
2022/01/04 00:01:35;;;;;;;11.77;7.00;;;12.10;96.70;;;;;;5077902;28;20040;-73
2022/01/04 00:04:04;;;;;;;7.38;5.70;;;12.10;96.70;;;;;;5078186;28;20040;-74
2022/01/04 00:06:32;;;;;;;9.45;6.65;;;12.10;96.70;;;;;;5076129;28;20096;-74
2022/01/04 00:09:06;;;;;;;6.50;5.25;;;12.10;96.70;;;;;;5078785;28;20063;-74
2022/01/04 00:13:22;;;;;;;12.18;5.85;;;12.10;96.70;;;;;;5060359;28;20068;-74
2022/01/04 00:14:27;;;;;;;9.60;5.32;;;12.10;96.70;;;;;;5062206;28;20533;-73
2022/01/04 00:16:55;;;;;;;8.57;4.75;;;12.10;96.70;;;;;;5080764;28;20059;-74
2022/01/04 00:19:24;;;;;;;5.55;3.78;;;12.10;96.70;;;;;;5078691;28;20126;-73
2022/01/04 00:21:53;;;;;;;6.90;3.78;;;12.00;96.70;;;;;;5073175;28;20425;-73
2022/01/04 00:24:22;;;;;;;6.43;3.83;;;12.00;96.70;;;;;;5076148;28;20044;-74
2022/01/04 00:26:50;;;;;;;5.47;3.47;;;12.00;96.70;;;;;;5076842;28;20039;-73
2022/01/04 00:29:18;;;;;;;4.72;3.35;;;12.00;96.70;;;;;;5062814;28;20119;-73
2022/01/04 00:31:48;;;;;;;6.10;3.55;;;11.90;96.70;;;;;;5074381;28;20505;-74
2022/01/04 00:34:16;;;;;;;4.45;3.45;;;11.90;96.70;;;;;;5075156;28;20044;-74
2022/01/04 00:36:44;;;;;;;7.85;3.88;;;11.90;96.70;;;;;;5076424;28;20130;-74
2022/01/04 00:39:12;;;;;;;5.47;3.20;;;11.90;96.70;;;;;;5069179;28;20131;-73
2022/01/04 00:41:40;;;;;;;4.85;3.50;;;12.00;96.70;;;;;;5079990;28;20142;-73
2022/01/04 00:44:09;;;;;;;6.28;3.22;;;11.90;96.70;;;;;;5082169;28;20043;-74
2022/01/04 00:46:37;;;;;;;4.10;3.10;;;11.90;96.70;;;;;;5078995;28;20043;-74
2022/01/04 00:49:10;;;;;;;5.80;3.13;;;11.90;96.70;;;;;;5062106;28;20098;-74
2022/01/04 00:51:39;;;;;;;7.93;3.35;;;11.90;96.70;;;;;;5078515;28;20044;-74
2022/01/04 00:54:10;;;;;;;6.88;3.60;;;11.80;96.70;;;;;;5076906;28;20144;-74
2022/01/04 00:56:38;;;;;;;4.35;3.03;;;11.80;96.70;;;;;;5076253;28;20071;-74
2022/01/04 00:59:07;;;;;;;6.13;3.00;;;11.90;96.70;;;;;;5076201;28;20063;-74
2022/01/04 01:01:36;;;;;;;7.03;3.58;;;11.90;96.70;;;;;;5078022;28;20147;-74
2022/01/04 01:04:07;;;;;;;4.55;2.97;;;11.90;96.70;;;;;;5075227;28;20101;-74
2022/01/04 01:06:36;;;;;;;4.78;3.47;;;11.90;96.70;;;;;;5080934;28;20040;-74
2022/01/04 01:09:05;;;;;;;5.93;3.50;;;11.90;96.70;;;;;;5076912;28;20044;-74
2022/01/04 01:11:33;;;;;;;4.47;3.00;;;11.90;96.70;;;;;;5077740;28;20044;-74
2022/01/04 01:14:02;;;;;;;4.28;2.85;;;11.90;96.70;;;;;;5076551;28;20070;-74
2022/01/04 01:16:30;;;;;;;3.83;3.00;;;11.80;96.70;;;;;;5078151;28;20131;-73
2022/01/04 01:18:58;;;;;;;3.88;3.00;;;11.80;96.70;;;;;;5075525;28;20071;-73
2022/01/04 01:21:28;;;;;;;6.70;3.45;;;11.80;96.70;;;;;;5076365;28;20635;-74
2022/01/04 01:23:56;;;;;;;5.30;3.35;;;11.80;96.70;;;;;;5078717;28;20043;-74
2022/01/04 01:26:24;;;;;;;4.20;3.00;;;11.80;96.70;;;;;;5077150;28;20036;-74
2022/01/04 01:28:52;;;;;;;5.55;3.53;;;11.80;96.70;;;;;;5076200;28;20092;-74
2022/01/04 01:31:20;;;;;;;7.38;3.00;;;11.90;96.70;;;;;;5078966;28;20444;-74
2022/01/04 01:33:49;;;;;;;7.90;3.40;;;11.90;96.70;;;;;;5077033;28;20575;-74
2022/01/04 01:36:17;;;;;;;4.60;2.97;;;11.90;96.70;;;;;;5078248;28;20128;-74
2022/01/04 01:38:47;;;;;;;6.32;3.05;;;11.90;96.70;;;;;;5077055;28;20051;-74
2022/01/04 01:41:15;;;;;;;6.30;3.10;;;11.90;96.70;;;;;;5072678;28;20130;-73
2022/01/04 01:43:44;;;;;;;5.70;3.88;;;11.90;96.70;;;;;;5075861;28;20044;-73
2022/01/04 01:46:12;;;;;;;5.90;3.47;;;11.90;96.70;;;;;;5075635;28;20130;-73
2022/01/04 01:48:42;;;;;;;5.13;3.60;;;12.00;96.70;;;;;;5074379;28;20267;-73
2022/01/04 01:51:15;;;;;;;5.28;3.83;;;12.00;96.70;;;;;;5079621;28;20071;-74
2022/01/04 01:53:44;;;;;;;5.40;3.58;;;12.00;96.70;;;;;;5076273;28;20097;-74
2022/01/04 01:56:13;;;;;;;7.93;3.70;;;12.00;96.70;;;;;;5076747;28;20035;-74
2022/01/04 01:58:42;;;;;;;5.13;4.07;;;12.00;96.70;;;;;;5077804;28;20386;-73
2022/01/04 02:01:11;;;;;;;6.82;4.30;;;12.00;96.70;;;;;;5078815;28;20040;-74
2022/01/04 02:03:40;;;;;;;6.30;4.45;;;12.00;96.70;;;;;;5070684;28;20125;-74
2022/01/04 02:06:08;;;;;;;6.50;4.13;;;12.00;96.70;;;;;;5074516;28;20243;-74
2022/01/04 02:08:36;;;;;;;6.95;4.38;;;11.90;96.70;;;;;;5077546;28;20044;-74
2022/01/04 02:11:05;;;;;;;6.00;4.10;;;11.90;96.70;;;;;;5072675;28;20035;-74
2022/01/04 02:13:35;;;;;;;5.63;3.83;;;12.00;96.70;;;;;;5078679;28;20217;-74
2022/01/04 02:16:03;;;;;;;7.10;4.20;;;12.00;96.70;;;;;;5073527;28;20086;-74
2022/01/04 02:18:31;;;;;;;6.43;4.03;;;12.00;96.70;;;;;;5075831;28;20170;-74
2022/01/04 02:21:01;;;;;;;5.95;3.67;;;12.00;96.70;;;;;;5073568;28;20561;-74
2022/01/04 02:23:29;;;;;;;4.93;3.42;;;11.90;96.70;;;;;;5076865;28;20112;-73
2022/01/04 02:25:58;;;;;;;7.25;3.78;;;11.90;96.70;;;;;;5075850;28;20099;-73
2022/01/04 02:28:26;;;;;;;7.28;4.20;;;11.90;96.70;;;;;;5079209;28;20142;-73
2022/01/04 02:30:55;;;;;;;6.88;4.28;;;11.90;96.70;;;;;;5076017;28;20040;-73
2022/01/04 02:33:23;;;;;;;7.72;5.63;;;11.90;96.70;;;;;;5078727;28;20085;-73
2022/01/04 02:35:51;;;;;;;7.45;4.50;;;11.80;96.70;;;;;;5077020;28;20558;-74
2022/01/04 02:38:21;;;;;;;6.88;5.00;;;11.80;96.70;;;;;;5061488;28;20051;-74
2022/01/04 02:40:49;;;;;;;14.55;8.90;;;11.80;96.70;;;;;;5077567;28;20044;-74
2022/01/04 02:43:17;;;;;;;10.60;7.38;;;11.80;96.70;;;;;;5076603;28;20044;-73
2022/01/04 02:45:45;;;;;;;10.20;7.30;;;11.80;96.70;;;;;;5072498;28;20068;-73
2022/01/04 02:48:14;;;;;;;10.68;7.05;;;11.80;96.70;;;;;;5077620;28;20064;-73
2022/01/04 02:50:42;;;;;;;9.85;6.35;;;11.80;96.70;;;;;;5076648;28;20064;-73
2022/01/04 02:53:10;;;;;;;7.35;5.30;;;11.70;96.70;;;;;;5078337;28;20063;-74
2022/01/04 02:55:40;;;;;;;6.25;4.85;;;11.70;96.70;;;;;;5076171;28;20365;-73
2022/01/04 02:58:08;;;;;;;8.38;5.38;;;11.60;96.70;;;;;;5078298;28;20652;-73
2022/01/04 03:00:36;;;;;;;10.73;5.68;;;11.60;96.70;;;;;;5073920;28;20053;-74
2022/01/04 03:03:04;;;;;;;5.97;4.55;;;11.60;96.70;;;;;;5077779;28;20036;-73
2022/01/04 03:05:33;;;;;;;10.35;4.75;;;11.70;96.70;;;;;;5061777;28;20041;-74
2022/01/04 03:08:01;;;;;;;7.85;4.65;;;11.60;96.70;;;;;;5073780;28;20543;-74
2022/01/04 03:10:29;;;;;;;9.00;4.30;;;11.60;96.70;;;;;;5079732;28;20071;-73
2022/01/04 03:12:59;;;;;;;9.73;4.10;;;11.60;96.70;;;;;;5078589;28;20040;-74
2022/01/04 03:15:27;;;;;;;8.43;3.88;;;11.60;96.70;;;;;;5080269;28;20110;-74
2022/01/04 03:17:55;;;;;;;5.05;3.28;;;11.60;96.70;;;;;;5065945;28;20071;-73
2022/01/04 03:20:23;;;;;;;5.63;4.00;;;11.60;96.70;;;;;;5077660;28;20066;-73
2022/01/04 03:22:51;;;;;;;5.43;4.22;;;11.60;96.70;;;;;;5076411;28;20051;-73
2022/01/04 03:25:56;;;;;;;8.38;4.28;;;11.60;96.70;;;;;;5076741;28;20044;-73
2022/01/04 03:28:26;;;;;;;5.75;4.10;;;11.60;96.70;;;;;;5076629;28;20059;-73
2022/01/04 03:30:54;;;;;;;8.15;4.30;;;11.60;96.70;;;;;;5080083;28;20488;-73
2022/01/04 03:33:22;;;;;;;5.63;3.83;;;11.60;96.70;;;;;;5079259;28;20119;-73
2022/01/04 03:35:50;;;;;;;5.60;4.07;;;11.60;96.70;;;;;;5077926;28;20077;-74
2022/01/04 03:38:19;;;;;;;8.25;4.03;;;11.60;96.70;;;;;;5075645;28;20068;-73
2022/01/04 03:40:47;;;;;;;4.32;3.45;;;11.60;96.70;;;;;;5080182;28;20130;-73
2022/01/04 03:43:15;;;;;;;7.30;3.75;;;11.60;96.70;;;;;;5063573;28;20036;-73
2022/01/04 03:45:45;;;;;;;6.93;4.45;;;11.60;96.70;;;;;;5077413;28;20130;-73
2022/01/04 03:48:14;;;;;;;7.22;3.90;;;11.60;96.70;;;;;;5079057;28;20524;-74
2022/01/04 03:50:42;;;;;;;8.82;3.40;;;11.60;96.70;;;;;;5064375;28;20044;-74
2022/01/04 03:53:10;;;;;;;9.00;3.20;;;11.60;96.70;;;;;;5076563;28;20109;-73
2022/01/04 03:55:38;;;;;;;6.15;3.15;;;11.60;96.70;;;;;;5081575;28;20044;-74
2022/01/04 03:58:06;;;;;;;14.38;4.25;;;11.60;96.70;;;;;;5078068;28;20051;-73
2022/01/04 04:00:35;;;;;;;9.82;3.38;;;11.70;96.70;;;;;;5077597;28;20154;-73
2022/01/04 04:03:04;;;;;;;8.50;3.22;;;11.80;96.70;;;;;;5076387;28;20049;-74
2022/01/04 04:05:33;;;;;;;10.35;3.35;;;11.80;96.70;;;;;;5074071;28;20045;-74
2022/01/04 04:08:01;;;;;;;10.82;4.22;;;11.90;96.70;;;;;;5075509;28;20036;-74
2022/01/04 04:10:29;;;;;;;12.93;3.78;;;11.90;96.70;;;;;;5071589;28;20139;-73
2022/01/04 04:12:57;;;;;;;11.63;4.60;;;12.00;96.70;;;;;;5077931;28;20516;-73
2022/01/04 04:15:25;;;;;;;12.05;3.67;;;12.00;96.70;;;;;;5080757;28;20105;-73
2022/01/04 04:17:53;;;;;;;10.63;3.65;;;12.00;96.70;;;;;;5076824;28;20040;-74
2022/01/04 04:20:23;;;;;;;12.23;3.47;;;12.00;96.70;;;;;;5074511;28;20127;-74
2022/01/04 04:22:51;;;;;;;10.02;3.30;;;12.00;96.70;;;;;;5074070;28;20040;-74
2022/01/04 04:25:20;;;;;;;14.23;4.35;;;12.10;96.70;;;;;;5077726;28;20093;-74
2022/01/04 04:27:48;;;;;;;10.57;3.25;;;12.10;96.70;;;;;;5077345;28;20048;-73
2022/01/04 04:30:16;;;;;;;11.93;3.08;;;12.10;96.70;;;;;;5078883;28;20062;-73
2022/01/04 04:32:44;;;;;;;8.73;3.22;;;12.10;96.70;;;;;;5076292;28;20047;-73
2022/01/04 04:35:13;;;;;;;8.75;3.05;;;12.20;96.70;;;;;;5072992;28;20544;-73
2022/01/04 04:37:42;;;;;;;9.18;3.30;;;12.20;96.70;;;;;;5075518;28;20505;-74
2022/01/04 04:40:11;;;;;;;12.25;3.80;;;12.20;96.70;;;;;;5075246;28;20040;-74
2022/01/04 04:42:40;;;;;;;12.27;3.10;;;12.20;96.70;;;;;;5073070;28;20564;-74
2022/01/04 04:45:08;;;;;;;12.13;3.50;;;12.30;96.70;;;;;;5078538;28;20505;-74
2022/01/04 04:47:37;;;;;;;12.90;3.50;;;12.40;96.70;;;;;;5072595;28;20064;-74
2022/01/04 04:50:07;;;;;;;11.85;4.18;;;12.40;96.70;;;;;;5079739;28;20036;-74
2022/01/04 04:52:35;;;;;;;10.15;3.53;;;12.50;96.70;;;;;;5075499;28;20405;-73
2022/01/04 04:55:06;;;;;;;8.18;2.90;;;12.50;96.70;;;;;;5074653;28;20093;-74
2022/01/04 04:57:36;;;;;;;11.30;3.33;;;12.60;96.70;;;;;;5058945;28;20548;-73
2022/01/04 05:00:08;;;;;;;8.10;2.72;;;12.60;96.70;;;;;;5074298;28;20040;-73
2022/01/04 05:02:37;;;;;;;16.77;3.58;;;12.70;96.70;;;;;;5079214;28;20040;-74
2022/01/04 05:05:07;;;;;;;9.25;3.75;;;12.70;96.70;;;;;;5078117;28;20040;-74
2022/01/04 05:07:36;;;;;;;12.40;3.58;;;12.70;96.70;;;;;;5074266;28;20469;-74
2022/01/04 05:10:08;;;;;;;12.32;3.40;;;12.80;96.70;;;;;;5076959;28;20037;-74
2022/01/04 05:12:37;;;;;;;11.60;3.22;;;12.80;96.70;;;;;;5079215;28;20040;-74
2022/01/04 05:15:07;;;;;;;9.75;3.45;;;12.80;96.70;;;;;;5073281;28;20044;-74
2022/01/04 05:17:35;;;;;;;13.70;3.00;;;12.80;96.70;;;;;;5076201;28;20516;-72
2022/01/04 05:20:05;;;;;;;7.35;3.10;;;12.80;96.70;;;;;;5075896;28;20040;-73
2022/01/04 05:22:36;;;;;;;10.70;3.88;;;12.70;96.70;;;;;;5075896;28;20044;-74
2022/01/04 05:25:07;;;;;;;11.20;3.65;;;12.70;96.70;;;;;;5078457;28;20071;-74
2022/01/04 05:27:36;;;;;;;8.93;2.92;;;12.70;96.70;;;;;;5078746;28;20588;-74
2022/01/04 05:30:06;;;;;;;11.18;3.15;;;12.70;96.70;;;;;;5076966;28;20050;-73
2022/01/04 05:32:35;;;;;;;14.23;3.63;;;12.70;96.70;;;;;;5061988;28;20406;-73
2022/01/04 05:35:04;;;;;;;8.48;3.10;;;12.70;96.70;;;;;;5076034;28;20526;-74
2022/01/04 05:37:33;;;;;;;13.38;3.72;;;12.70;96.70;;;;;;5081880;28;20036;-74
2022/01/04 05:40:02;;;;;;;11.38;3.20;;;12.70;96.70;;;;;;5078450;28;20498;-74
2022/01/04 05:42:32;;;;;;;15.25;3.63;;;12.70;96.70;;;;;;5076346;28;20040;-73
2022/01/04 05:45:01;;;;;;;12.02;4.10;;;12.70;96.70;;;;;;5078211;28;20159;-74
2022/01/04 05:47:30;;;;;;;9.68;3.53;;;12.70;96.70;;;;;;5059401;28;20090;-74
2022/01/04 05:49:58;;;;;;;11.00;3.17;;;12.70;96.70;;;;;;5078615;28;20469;-73
2022/01/04 05:52:27;;;;;;;13.95;3.25;;;12.70;96.70;;;;;;5075770;28;20485;-73
2022/01/04 05:54:57;;;;;;;10.90;3.13;;;12.70;96.70;;;;;;5077815;28;20098;-73
2022/01/04 05:57:26;;;;;;;13.70;3.95;;;12.70;96.70;;;;;;5077681;28;20040;-74
2022/01/04 05:59:57;;;;;;;11.07;2.97;;;12.70;96.70;;;;;;5062242;28;20048;-74
2022/01/04 06:02:26;;;;;;;11.55;3.35;;;12.70;96.70;;;;;;5076827;28;20213;-74
2022/01/04 06:04:55;;;;;;;10.68;3.20;;;12.70;96.70;;;;;;5081325;28;20150;-74
2022/01/04 06:07:23;;;;;;;12.85;3.92;;;12.70;96.70;;;;;;5078390;28;20075;-74
2022/01/04 06:09:54;;;;;;;13.38;4.60;;;12.70;96.70;;;;;;5076219;28;20060;-74
2022/01/04 06:15:03;;;;;;;9.50;3.10;;;12.70;96.70;;;;;;5094206;27;20405;-74
2022/01/04 06:17:33;;;;;;;9.55;2.95;;;12.70;96.70;;;;;;5090492;28;20047;-74
2022/01/04 06:20:05;;;;;;;13.18;3.58;;;12.70;96.70;;;;;;5078416;28;20509;-73
2022/01/04 06:22:38;;;;;;;7.57;3.15;;;12.70;96.70;;;;;;5075464;28;20101;-73
2022/01/04 06:25:11;;;;;;;11.95;2.53;;;12.70;96.70;;;;;;5076429;28;20094;-73
2022/01/04 06:27:43;;;;;;;9.60;3.55;;;12.80;96.70;;;;;;5076053;28;20147;-73
2022/01/04 06:30:22;;;;;;;8.90;2.95;;;12.80;96.70;;;;;;5057218;28;20051;-73
2022/01/04 06:32:52;;;;;;;11.63;3.08;;;12.80;96.70;;;;;;5077176;28;20557;-74
2022/01/04 06:35:21;;;;;;;9.55;3.03;;;12.70;96.70;;;;;;5077327;28;20144;-73
2022/01/04 06:37:50;;;;;;;11.27;3.00;;;12.70;96.70;;;;;;5072964;28;20564;-73
2022/01/04 06:40:19;;;;;;;9.52;3.20;;;12.70;96.70;;;;;;5072714;28;20446;-74
2022/01/04 06:42:48;;;;;;;10.63;3.22;;;12.70;96.70;;;;;;5076192;28;20544;-74
2022/01/04 06:45:18;;;;;;;9.75;3.30;;;12.70;96.70;;;;;;5078495;28;20043;-72
2022/01/04 06:47:48;;;;;;;12.15;3.97;;;12.70;96.70;;;;;;5076161;28;20039;-73
2022/01/04 06:50:18;;;;;;;12.18;3.33;;;12.70;96.70;;;;;;5075622;28;20536;-73
2022/01/04 06:52:51;;;;;;;11.23;3.47;;;12.70;96.70;;;;;;5075917;28;20121;-73
2022/01/04 06:55:19;;;;;;;9.77;4.13;;;12.70;96.70;;;;;;5075210;28;20467;-73
2022/01/04 06:57:47;;;;;;;12.63;4.75;;;12.70;96.70;;;;;;5077111;28;20513;-73
2022/01/04 07:00:18;;;;;;;13.35;6.20;;;12.70;96.70;;;;;;5072033;28;20407;-73
2022/01/04 07:02:46;;;;;;;10.35;4.80;;;12.80;96.70;;;;;;5075456;28;20047;-73
2022/01/04 07:05:15;;;;;;;15.23;4.38;;;12.80;96.70;;;;;;5072754;28;20044;-73
2022/01/04 07:07:43;;;;;;;9.60;4.38;;;12.80;96.70;;;;;;5076820;28;20044;-73
2022/01/04 07:10:12;;;;;;;12.80;3.80;;;12.80;96.70;;;;;;5075727;28;20544;-73
2022/01/04 07:12:41;;;;;;;9.00;3.83;;;12.80;96.70;;;;;;5077424;28;20033;-73
2022/01/04 07:15:09;;;;;;;9.90;2.97;;;12.80;96.70;;;;;;5074462;28;20055;-73
2022/01/04 07:17:41;;;;;;;8.38;3.47;;;12.80;96.70;;;;;;5075350;28;20036;-73
2022/01/04 07:20:11;;;;;;;11.05;3.30;;;12.80;96.70;;;;;;5076376;28;20044;-73
2022/01/04 07:22:39;;;;;;;13.63;3.58;;;12.80;96.70;;;;;;5076811;28;20121;-73
2022/01/04 07:25:08;;;;;;;13.95;3.53;;;12.80;96.70;;;;;;5076443;28;20044;-73
2022/01/04 07:27:38;;;;;;;10.98;3.33;;;12.80;96.70;;;;;;5074577;28;20483;-73
2022/01/04 07:30:07;;;;;;;10.65;3.83;;;12.80;96.70;;;;;;5078470;28;20059;-73
2022/01/04 07:32:35;;;;;;;8.02;3.70;;;12.90;96.70;;;;;;5077322;28;20066;-73
2022/01/04 07:35:06;;;;;;;9.43;3.47;;;12.90;96.70;;;;;;5078254;28;20090;-73
2022/01/04 07:37:35;;;;;;;10.75;3.70;;;12.90;96.70;;;;;;5075525;28;20047;-73
2022/01/04 07:40:05;;;;;;;15.73;3.88;;;12.90;96.70;;;;;;5074691;28;20043;-73
2022/01/04 07:42:34;;;;;;;9.82;3.88;;;12.90;96.70;;;;;;5074072;28;20048;-73
2022/01/04 07:45:03;;;;;;;12.18;3.88;;;12.90;96.70;;;;;;5073535;28;20134;-73
2022/01/04 07:47:32;;;;;;;11.00;4.65;;;12.90;96.70;;;;;;5072662;28;20070;-73
2022/01/04 07:50:00;;;;;;;18.67;4.65;;;12.90;96.70;;;;;;5074345;28;20424;-73
2022/01/04 07:52:30;;;;;;;16.27;4.47;;;12.90;96.70;;;;;;5061572;28;20161;-72
2022/01/04 07:54:59;;;;;;;8.55;3.95;;;12.90;96.70;;;;;;5074998;28;20068;-73
2022/01/04 07:57:28;;;;;;;13.32;4.05;;;13.00;96.70;;;;;;5076785;28;20043;-73
2022/01/04 07:59:56;;;;;;;12.55;4.70;;;13.00;96.70;;;;;;5062599;28;20051;-73
2022/01/04 08:02:25;;;;;;;10.60;4.60;;;13.00;96.70;;;;;;5081127;28;20044;-73
2022/01/04 08:04:54;;;;;;;7.18;3.38;;;13.00;96.70;;;;;;5082988;28;20114;-73
2022/01/04 08:07:22;;;;;;;11.18;4.35;;;13.10;96.70;;;;;;5073962;28;20044;-73
2022/01/04 08:09:52;;;;;;;12.05;3.70;;;13.10;96.70;;;;;;5076870;28;20043;-73
2022/01/04 08:12:21;;;;;;;12.02;4.43;;;13.10;96.70;;;;;;5075229;28;20039;-72
2022/01/04 08:14:49;;;;;;;15.70;5.05;;;13.10;96.70;;;;;;5079971;28;20058;-73
2022/01/04 08:17:18;;;;;;;8.60;4.30;;;13.10;96.70;;;;;;5079359;28;20044;-72
2022/01/04 08:19:46;;;;;;;9.85;4.32;;;13.10;96.70;;;;;;5078809;28;20836;-72
2022/01/04 08:22:14;;;;;;;14.55;4.65;;;13.10;96.70;;;;;;5076726;28;20167;-73
2022/01/04 08:24:43;;;;;;;9.50;4.00;;;13.10;96.70;;;;;;5078915;28;20044;-73
2022/01/04 08:27:13;;;;;;;12.90;4.05;;;13.20;96.70;;;;;;5078772;28;20047;-72
2022/01/04 08:29:42;;;;;;;11.60;3.75;;;13.20;96.70;;;;;;5073286;28;20456;-72
2022/01/04 08:32:10;;;;;;;14.43;4.15;;;13.20;96.70;;;;;;5079449;28;20040;-73
2022/01/04 08:34:39;;;;;;;15.55;4.20;;;13.20;96.70;;;;;;5077695;28;20048;-72
2022/01/04 08:37:07;;;;;;;9.38;3.72;;;13.20;96.70;;;;;;5075520;28;20044;-73
2022/01/04 08:39:36;;;;;;;11.63;5.03;;;13.20;96.70;;;;;;5082744;28;20163;-73
2022/01/04 08:42:05;;;;;;;7.05;2.97;;;13.20;96.70;;;;;;5072935;28;20063;-73
2022/01/04 08:44:39;;;;;;;10.73;3.63;;;13.20;96.70;;;;;;5074736;28;20509;-73
2022/01/04 08:47:08;;;;;;;10.52;3.30;;;13.20;96.70;;;;;;5072050;28;20119;-72
2022/01/04 08:49:38;;;;;;;6.38;3.05;;;13.20;96.70;;;;;;5077754;28;20129;-72
2022/01/04 08:52:07;;;;;;;15.57;6.05;;;13.20;96.70;;;;;;5076463;28;20452;-71
2022/01/04 08:54:36;;;;;;;21.33;7.78;;;13.20;96.70;;;;;;5094949;28;20580;-71
2022/01/04 08:57:06;;;;;;;7.50;4.35;;;13.20;96.70;;;;;;5077027;28;20506;-71
2022/01/04 08:59:36;;;;;;;11.75;3.65;;;13.20;96.70;;;;;;5078152;28;20630;-72
2022/01/04 09:02:05;;;;;;;8.43;3.65;;;13.20;96.70;;;;;;5078829;28;20044;-72
2022/01/04 09:04:33;;;;;;;9.80;3.28;;;13.20;96.70;;;;;;5076877;28;20055;-71
2022/01/04 09:07:03;;;;;;;7.85;3.63;;;13.20;96.70;;;;;;5079584;28;20457;-72
2022/01/04 09:09:33;;;;;;;9.15;3.65;;;13.10;96.70;;;;;;5076030;28;20054;-71
2022/01/04 09:12:25;;;;;;;6.78;2.72;;;13.10;96.70;;;;;;5076406;28;20044;-71
2022/01/04 09:15:04;;;;;;;6.00;2.55;;;13.10;96.70;;;;;;5074758;28;20059;-71
2022/01/04 09:20:19;;;;;;;10.57;4.25;;;13.10;96.70;;;;;;5077521;28;20051;-73
2022/01/04 09:22:48;;;;;;;10.48;4.78;;;13.10;96.70;;;;;;5076657;28;20032;-72
2022/01/04 09:25:18;;;;;;;5.32;3.08;;;13.10;96.70;;;;;;5078126;28;20509;-71
2022/01/04 09:27:46;;;;;;;18.27;9.57;;;13.10;96.70;;;;;;5080537;28;20048;-72
2022/01/04 09:30:16;;;;;;;11.00;4.97;;;13.10;96.70;;;;;;5076936;28;20036;-71
2022/01/04 09:32:44;;;;;;;11.50;5.47;;;13.10;96.70;;;;;;5074165;28;20048;-72
2022/01/04 09:35:14;;;;;;;12.15;5.30;;;13.10;96.70;;;;;;5077085;28;20060;-70
2022/01/04 09:37:43;;;;;;;13.52;4.97;;;13.10;96.70;;;;;;5072937;28;20051;-70
2022/01/04 09:40:12;;;;;;;9.52;4.07;;;13.10;96.70;;;;;;5075412;28;20040;-71
2022/01/04 09:42:42;;;;;;;8.88;3.95;;;13.10;96.70;;;;;;5073070;28;20554;-73
2022/01/04 09:45:11;;;;;;;10.77;6.10;;;13.10;96.70;;;;;;5071378;28;20569;-73
2022/01/04 09:47:42;;;;;;;8.05;4.53;;;13.10;96.70;;;;;;5079270;28;20501;-73
2022/01/04 09:50:11;;;;;;;8.30;4.80;;;13.20;96.70;;;;;;5077647;28;20060;-73
2022/01/04 09:52:43;;;;;;;12.70;6.82;;;13.30;96.70;;;;;;5063222;28;20122;-73
2022/01/04 09:55:13;;;;;;;11.50;5.32;;;13.30;96.70;;;;;;5089756;28;20036;-73
2022/01/04 09:57:44;;;;;;;7.15;4.25;;;13.40;96.70;;;;;;5077869;28;20135;-73
2022/01/04 10:00:15;;;;;;;7.95;5.53;;;13.30;96.70;;;;;;5076122;28;20568;-71
2022/01/04 10:02:49;;;;;;;11.05;6.35;;;13.40;96.70;;;;;;5075519;28;20051;-73
2022/01/04 10:05:21;;;;;;;11.13;6.20;;;13.30;96.70;;;;;;5074603;28;20135;-73
2022/01/04 10:08:01;;;;;;;16.05;6.97;;;13.30;96.70;;;;;;5076268;28;20426;-71
2022/01/04 10:10:29;;;;;;;8.55;4.28;;;13.30;96.70;;;;;;5073975;28;20182;-71
2022/01/04 10:13:00;;;;;;;8.80;3.42;;;13.30;96.70;;;;;;5078551;28;20047;-72
2022/01/04 10:15:32;;;;;;;8.20;4.25;;;13.40;96.70;;;;;;5095307;28;20048;-72
2022/01/04 10:18:17;;;;;;;6.80;2.95;;;13.40;96.70;;;;;;5073823;28;20616;-74
2022/01/04 10:20:47;;;;;;;13.05;4.80;;;13.40;96.70;;;;;;5075124;28;20048;-71
2022/01/04 10:23:18;;;;;;;7.80;4.32;;;13.50;96.70;;;;;;5079549;28;20044;-72
2022/01/04 10:25:49;;;;;;;6.45;3.95;;;13.50;96.70;;;;;;5076741;28;20152;-75
2022/01/04 10:28:31;;;;;;;5.72;3.35;;;13.60;96.70;;;;;;5071803;28;20043;-72
2022/01/04 10:31:01;;;;;;;6.97;3.05;;;13.60;96.70;;;;;;5074079;28;20036;-72
2022/01/04 10:33:34;;;;;;;7.75;3.17;;;13.60;96.70;;;;;;5075153;28;20044;-71
2022/01/04 10:36:11;;;;;;;5.00;2.80;;;13.60;96.70;;;;;;5076394;28;20036;-71
2022/01/04 10:38:47;;;;;;;7.50;3.38;;;13.70;96.70;;;;;;5071674;28;20051;-73
2022/01/04 10:41:25;;;;;;;8.20;3.90;;;13.70;96.70;;;;;;5076433;28;20418;-72
2022/01/04 10:43:57;;;;;;;6.75;2.90;;;13.80;96.70;;;;;;5071344;28;20501;-71
2022/01/04 10:46:33;;;;;;;8.02;3.78;;;13.80;96.70;;;;;;5077082;28;20319;-72
2022/01/04 10:49:17;;;;;;;8.57;4.72;;;13.80;96.70;;;;;;5076813;28;20036;-72
2022/01/04 10:52:02;;;;;;;8.60;3.72;;;13.90;96.70;;;;;;5094076;28;20553;-73
2022/01/04 10:54:31;;;;;;;6.45;3.17;;;13.80;96.70;;;;;;5077281;28;20048;-73
2022/01/04 10:57:05;;;;;;;7.45;3.90;;;13.90;96.70;;;;;;5078138;28;20384;-72
2022/01/04 10:59:34;;;;;;;9.68;3.65;;;13.90;96.70;;;;;;5078438;28;20051;-73
2022/01/04 11:02:04;;;;;;;8.35;3.50;;;13.90;96.70;;;;;;5073696;28;20040;-72
2022/01/04 11:04:37;;;;;;;7.07;3.33;;;13.90;96.70;;;;;;5074840;28;20127;-71
2022/01/04 11:07:06;;;;;;;9.68;4.47;;;13.90;96.70;;;;;;5074114;28;20117;-71
2022/01/04 11:09:35;;;;;;;9.73;4.20;;;14.00;96.70;;;;;;5074272;28;20484;-71
2022/01/04 11:12:05;;;;;;;7.68;3.80;;;14.00;96.70;;;;;;5073637;28;20501;-72
2022/01/04 11:14:35;;;;;;;6.70;3.35;;;14.10;96.70;;;;;;5078306;28;20044;-71
2022/01/04 11:17:05;;;;;;;9.23;3.53;;;14.10;96.70;;;;;;5074219;28;20070;-73
2022/01/04 11:19:35;;;;;;;7.63;3.83;;;14.10;96.70;;;;;;5076844;28;20109;-73
2022/01/04 11:22:08;;;;;;;6.80;3.80;;;14.00;96.70;;;;;;5075814;28;20047;-73
2022/01/04 11:24:41;;;;;;;11.68;4.82;;;14.10;96.70;;;;;;5094176;28;20090;-72
2022/01/04 11:27:12;;;;;;;8.38;3.63;;;14.10;96.70;;;;;;5074729;28;20477;-71
2022/01/04 11:29:47;;;;;;;7.93;4.60;;;14.10;96.70;;;;;;5073041;28;20050;-72
2022/01/04 11:32:19;;;;;;;8.75;3.95;;;14.10;96.70;;;;;;5082450;28;20098;-72
2022/01/04 11:35:04;;;;;;;6.57;4.30;;;14.10;96.70;;;;;;5080336;28;20152;-72
2022/01/04 11:37:32;;;;;;;8.27;4.10;;;14.10;96.70;;;;;;5079221;28;20054;-72
2022/01/04 11:40:27;;;;;;;9.80;4.32;;;14.00;96.70;;;;;;5080020;28;20075;-72
2022/01/04 11:42:55;;;;;;;7.90;4.97;;;14.00;96.70;;;;;;5076040;28;20049;-74
2022/01/04 11:45:42;;;;;;;6.78;4.28;;;14.00;96.70;;;;;;5078195;28;20451;-74
2022/01/04 11:48:31;;;;;;;7.43;4.50;;;14.00;96.70;;;;;;5080604;28;20109;-74
2022/01/04 11:51:03;;;;;;;10.50;5.70;;;14.00;96.70;;;;;;5063505;28;20040;-72
2022/01/04 11:53:35;;;;;;;9.52;5.05;;;14.00;96.70;;;;;;5081282;28;20068;-75
2022/01/04 11:56:05;;;;;;;12.68;7.68;;;14.00;96.70;;;;;;5078467;28;20502;-71
2022/01/04 11:58:45;;;;;;;9.73;5.00;;;14.00;96.70;;;;;;5078136;28;20039;-73
2022/01/04 12:01:15;;;;;;;11.05;6.22;;;14.00;96.70;;;;;;5078453;28;20036;-73
2022/01/04 12:03:47;;;;;;;11.85;7.85;;;13.90;96.70;;;;;;5083613;28;20044;-72
2022/01/04 12:06:18;;;;;;;15.38;7.00;;;13.90;96.70;;;;;;5082811;28;20558;-73
2022/01/04 12:08:48;;;;;;;9.45;6.00;;;13.90;96.70;;;;;;5062130;28;20086;-73
2022/01/04 12:11:34;;;;;;;12.52;6.53;;;13.90;96.70;;;;;;5079339;28;20085;-71
2022/01/04 12:14:04;;;;;;;8.02;4.95;;;13.90;96.70;;;;;;5089730;27;20067;-72
2022/01/04 12:16:33;;;;;;;11.40;4.28;;;13.90;96.70;;;;;;5075530;28;20463;-72
2022/01/04 12:19:05;;;;;;;10.98;4.82;;;13.80;96.70;;;;;;5091181;28;20036;-72
2022/01/04 12:22:00;;;;;;;8.88;4.22;;;13.80;96.70;;;;;;5062965;28;20046;-73
2022/01/04 12:24:43;;;;;;;12.52;5.70;;;13.80;96.70;;;;;;5077845;28;20444;-72
2022/01/04 12:27:12;;;;;;;8.82;5.05;;;13.90;96.70;;;;;;5076219;28;20050;-74
2022/01/04 12:29:41;;;;;;;10.32;4.38;;;13.90;96.70;;;;;;5079036;28;20654;-74
2022/01/04 12:32:20;;;;;;;20.45;13.13;;;13.90;96.70;;;;;;5073708;28;20090;-74
2022/01/04 12:35:00;;;;;;;12.73;8.27;;;13.90;96.70;;;;;;5075574;28;20047;-74
2022/01/04 12:37:36;;;;;;;14.15;7.15;;;13.90;96.70;;;;;;5075368;28;20047;-74
2022/01/04 12:40:07;;;;;;;10.02;5.78;;;14.00;96.70;;;;;;5091197;28;20036;-74
2022/01/04 12:42:39;;;;;;;10.57;4.93;;;14.00;96.70;;;;;;5076103;28;20044;-75
2022/01/04 12:45:08;;;;;;;12.20;6.13;;;14.00;96.70;;;;;;5075630;28;20036;-74
2022/01/04 12:47:37;;;;;;;12.65;5.75;;;14.10;96.70;;;;;;5076218;28;20453;-74
2022/01/04 12:50:07;;;;;;;9.25;4.47;;;14.10;96.70;;;;;;5077160;28;20064;-74
2022/01/04 12:52:37;;;;;;;14.65;5.38;;;14.10;96.70;;;;;;5078800;28;20039;-75
2022/01/04 12:55:10;;;;;;;12.25;5.80;;;14.10;96.70;;;;;;5075237;28;20045;-75
2022/01/04 12:57:39;;;;;;;8.23;4.88;;;14.00;96.70;;;;;;5075351;28;20059;-74
2022/01/04 13:00:14;;;;;;;9.13;5.25;;;14.00;96.70;;;;;;5077431;28;20043;-74
2022/01/04 13:02:44;;;;;;;10.18;5.68;;;14.00;96.70;;;;;;5079274;28;20040;-74
2022/01/04 13:05:18;;;;;;;10.02;5.68;;;13.90;96.70;;;;;;5078292;28;20051;-74